地図

経路データ

SID SEASON NUMBER BASIN SUBBASIN NAME ISO_TIME NATURE LAT LON WMO_WIND WMO_PRES WMO_AGENCY TRACK_TYPE DIST2LAND LANDFALL IFLAG USA_AGENCY USA_ATCF_ID USA_LAT USA_LON USA_RECORD USA_STATUS USA_WIND USA_PRES USA_SSHS USA_R34_NE USA_R34_SE USA_R34_SW USA_R34_NW USA_R50_NE USA_R50_SE USA_R50_SW USA_R50_NW USA_R64_NE USA_R64_SE USA_R64_SW USA_R64_NW USA_POCI USA_ROCI USA_RMW USA_EYE TOKYO_LAT TOKYO_LON TOKYO_GRADE TOKYO_WIND TOKYO_PRES TOKYO_R50_DIR TOKYO_R50_LONG TOKYO_R50_SHORT TOKYO_R30_DIR TOKYO_R30_LONG TOKYO_R30_SHORT TOKYO_LAND CMA_LAT CMA_LON CMA_CAT CMA_WIND CMA_PRES HKO_LAT HKO_LON HKO_CAT HKO_WIND HKO_PRES NEWDELHI_LAT NEWDELHI_LON NEWDELHI_GRADE NEWDELHI_WIND NEWDELHI_PRES NEWDELHI_CI NEWDELHI_DP NEWDELHI_POCI REUNION_LAT REUNION_LON REUNION_TYPE REUNION_WIND REUNION_PRES REUNION_TNUM REUNION_CI REUNION_RMW REUNION_R34_NE REUNION_R34_SE REUNION_R34_SW REUNION_R34_NW REUNION_R50_NE REUNION_R50_SE REUNION_R50_SW REUNION_R50_NW REUNION_R64_NE REUNION_R64_SE REUNION_R64_SW REUNION_R64_NW BOM_LAT BOM_LON BOM_TYPE BOM_WIND BOM_PRES BOM_TNUM BOM_CI BOM_RMW BOM_R34_NE BOM_R34_SE BOM_R34_SW BOM_R34_NW BOM_R50_NE BOM_R50_SE BOM_R50_SW BOM_R50_NW BOM_R64_NE BOM_R64_SE BOM_R64_SW BOM_R64_NW BOM_ROCI BOM_POCI BOM_EYE BOM_POS_METHOD BOM_PRES_METHOD NADI_LAT NADI_LON NADI_CAT NADI_WIND NADI_PRES WELLINGTON_LAT WELLINGTON_LON WELLINGTON_WIND WELLINGTON_PRES DS824_LAT DS824_LON DS824_STAGE DS824_WIND DS824_PRES TD9636_LAT TD9636_LON TD9636_STAGE TD9636_WIND TD9636_PRES TD9635_LAT TD9635_LON TD9635_WIND TD9635_PRES TD9635_ROCI NEUMANN_LAT NEUMANN_LON NEUMANN_CLASS NEUMANN_WIND NEUMANN_PRES MLC_LAT MLC_LON MLC_CLASS MLC_WIND MLC_PRES USA_GUST BOM_GUST BOM_GUST_PER REUNION_GUST REUNION_GUST_PER USA_SEAHGT USA_SEARAD_NE USA_SEARAD_SE USA_SEARAD_SW USA_SEARAD_NW STORM_SPEED STORM_DIR
1974225N22089 1974 79 NI BB NOT_NAMED 1974-08-13 00:00:00 TS 21.9000 89.3000 main 0 0 O________OO___ jtwc_io IO061974 21.9000 89.3000 -1 21.9000 89.3000 TC 25 21.9000 89.3000 1 3 223
1974225N22089 1974 79 NI BB NOT_NAMED 1974-08-13 03:00:00 TS 21.7996 89.1985 main 0 0 P________PP___ IO061974 21.7900 89.1899 -1 21.7900 89.1899 TC 25 21.8188 89.2155 1 3 223
1974225N22089 1974 79 NI BB NOT_NAMED 1974-08-13 06:00:00 TS 21.7134 89.1116 main 10 10 O________OP___ jtwc_io IO061974 21.7000 89.1000 -1 21.7000 89.1000 TC 25 21.7401 89.1349 1 2 222
1974225N22089 1974 79 NI BB NOT_NAMED 1974-08-13 09:00:00 TS 21.6504 89.0490 main 0 0 P________PP___ IO061974 21.6425 89.0425 -1 21.6425 89.0425 TC 25 21.6663 89.0618 1 2 222
1974225N22089 1974 79 NI BB NOT_NAMED 1974-08-13 12:00:00 TS 21.6000 89.0000 main 0 0 O________OO___ jtwc_io IO061974 21.6000 89.0000 -1 21.6000 89.0000 TC 25 21.6000 89.0000 1 1 221
1974225N22089 1974 79 NI BB NOT_NAMED 1974-08-13 15:00:00 TS 21.5476 88.9503 main 11 11 P________PP___ IO061974 21.5500 88.9500 -1 21.5500 88.9500 TC 25 21.5428 88.9510 1 1 222
1974225N22089 1974 79 NI BB NOT_NAMED 1974-08-13 18:00:00 TS 21.4975 88.9025 main 11 11 O________OP___ jtwc_io IO061974 21.5000 88.9000 -1 21.5000 88.9000 TC 25 21.4924 88.9076 1 1 221
1974225N22089 1974 79 NI BB NOT_NAMED 1974-08-13 21:00:00 TS 21.4486 88.8535 main 22 22 P________PP___ IO061974 21.4500 88.8500 -1 21.4500 88.8500 TC 25 21.4459 88.8604 1 1 225
1974225N22089 1974 79 NI BB NOT_NAMED 1974-08-14 00:00:00 TS 21.4000 88.8000 main 24 24 O________OO___ jtwc_io IO061974 21.4000 88.8000 -1 21.4000 88.8000 TC 25 21.4000 88.8000 1 1 221
1974225N22089 1974 79 NI BB NOT_NAMED 1974-08-14 03:00:00 TS 21.3445 88.7562 main 35 35 P________PP___ IO061974 21.3500 88.7650 -1 21.3500 88.7650 TC 25 21.3336 88.7387 1 2 224
1974225N22089 1974 79 NI BB NOT_NAMED 1974-08-14 06:00:00 TS 21.2899 88.6866 main 39 35 O________OP___ jtwc_io IO061974 21.3000 88.7000 -1 21.3000 88.7000 TC 25 21.2698 88.6598 1 2 239
1974225N22089 1974 79 NI BB NOT_NAMED 1974-08-14 09:00:00 TS 21.2353 88.5653 main 45 44 P________PP___ IO061974 21.2425 88.5725 -1 21.2425 88.5725 TC 30 21.2211 88.5511 1 3 251
1974225N22089 1974 79 NI BB NOT_NAMED 1974-08-14 12:00:00 TS 21.2000 88.4000 main 44 44 O________OO___ jtwc_io IO061974 21.2000 88.4000 -1 21.2000 88.4000 TC 35 21.2000 88.4000 2 3 262
1974225N22089 1974 79 NI BB NOT_NAMED 1974-08-14 15:00:00 TS 21.1866 88.2153 main 44 44 P________PP___ IO061974 21.1774 88.2224 -1 21.1774 88.2224 TC 35 21.2050 88.2011 2 4 272
1974225N22089 1974 79 NI BB NOT_NAMED 1974-08-14 18:00:00 TS 21.2133 87.9866 main 49 44 O________OP___ jtwc_io IO061974 21.2000 88.0000 -1 21.2000 88.0000 TC 35 21.2400 87.9598 2 5 282
1974225N22089 1974 79 NI BB NOT_NAMED 1974-08-14 21:00:00 TS 21.2867 87.7062 main 44 22 P________PP___ IO061974 21.2775 87.7150 -1 21.2775 87.7150 TC 50 21.3050 87.6885 2 6 289
1974225N22089 1974 79 NI BB NOT_NAMED 1974-08-15 00:00:00 TS 21.4000 87.4000 main 22 0 O________OO___ jtwc_io IO061974 21.4000 87.4000 -1 21.4000 87.4000 TC 65 21.4000 87.4000 4 6 294
1974225N22089 1974 79 NI BB NOT_NAMED 1974-08-15 03:00:00 TS 21.5368 87.1021 main 0 0 P________PP___ IO061974 21.5424 87.1000 -1 21.5424 87.1000 TC 65 21.5254 87.1065 4 6 298
1974225N22089 1974 79 NI BB NOT_NAMED 1974-08-15 06:00:00 TS 21.6925 86.8001 main 0 0 O________OP___ jtwc_io IO061974 21.7000 86.8000 -1 21.7000 86.8000 TC 65 21.6776 86.8003 4 6 299
1974225N22089 1974 79 NI BB NOT_NAMED 1974-08-15 09:00:00 TS 21.8470 86.4930 main 0 0 P________PP___ IO061974 21.8500 86.4925 -1 21.8500 86.4925 TC 65 21.8410 86.4940 4 6 299
1974225N22089 1974 79 NI BB NOT_NAMED 1974-08-15 12:00:00 TS 22.0000 86.2000 main 0 0 O________OO___ jtwc_io IO061974 22.0000 86.2000 -1 22.0000 86.2000 TC 65 22.0000 86.2000 4 6 302
1974225N22089 1974 79 NI BB NOT_NAMED 1974-08-15 15:00:00 TS 22.1610 85.9484 main 0 0 P________PP___ IO061974 22.1574 85.9425 -1 22.1574 85.9425 TC 50 22.1682 85.9602 4 5 304
1974225N22089 1974 79 NI BB NOT_NAMED 1974-08-15 18:00:00 TS 22.3081 85.7101 main 0 0 O________OP___ jtwc_io IO061974 22.3000 85.7000 -1 22.3000 85.7000 TC 35 22.3242 85.7304 4 5 302
1974225N22089 1974 79 NI BB NOT_NAMED 1974-08-15 21:00:00 TS 22.4343 85.4768 main 0 0 P________PP___ IO061974 22.4298 85.4725 -1 22.4298 85.4725 TC 35 22.4431 85.4854 4 5 292
1974225N22089 1974 79 NI BB NOT_NAMED 1974-08-16 00:00:00 TS 22.5000 85.2000 main 0 0 O________OO___ jtwc_io IO061974 22.5000 85.2000 -1 22.5000 85.2000 TC 35 22.5000 85.2000 2 6 274
1974225N22089 1974 79 NI BB NOT_NAMED 1974-08-16 03:00:00 TS 22.4760 84.8250 main 0 0 P________PP___ IO061974 22.4875 84.8225 -1 22.4875 84.8225 TC 35 22.4529 84.8300 2 7 261
1974225N22089 1974 79 NI BB NOT_NAMED 1974-08-16 06:00:00 TS 22.3818 84.4071 main 0 0 O________OP___ jtwc_io IO061974 22.4000 84.4000 -1 22.4000 84.4000 TC 35 22.3455 84.4212 2 8 253
1974225N22089 1974 79 NI BB NOT_NAMED 1974-08-16 09:00:00 TS 22.2384 83.9955 main 0 0 P________PP___ IO061974 22.2500 83.9923 -1 22.2500 83.9923 TC 35 22.2153 84.0019 2 8 249
1974225N22089 1974 79 NI BB NOT_NAMED 1974-08-16 12:00:00 TS 22.1000 83.6000 main 0 0 O________OO___ jtwc_io IO061974 22.1000 83.6000 -1 22.1000 83.6000 TC 35 22.1000 83.6000 2 7 254
1974225N22089 1974 79 NI BB NOT_NAMED 1974-08-16 15:00:00 TS 22.0306 83.2372 main 0 0 P________PP___ IO061974 22.0274 83.2351 -1 22.0274 83.2351 TC 35 22.0369 83.2414 2 7 261
1974225N22089 1974 79 NI BB NOT_NAMED 1974-08-16 18:00:00 TS 21.9991 82.9017 main 0 0 O________OP___ jtwc_io IO061974 22.0000 82.9000 -1 22.0000 82.9000 TC 35 21.9972 82.9051 2 6 266
1974225N22089 1974 79 NI BB NOT_NAMED 1974-08-16 21:00:00 TS 21.9846 82.5871 main 0 0 P________PP___ IO061974 21.9849 82.5850 -1 21.9849 82.5850 TC 35 21.9839 82.5913 2 6 270
1974225N22089 1974 79 NI BB NOT_NAMED 1974-08-17 00:00:00 TS 22.0000 82.3000 main 0 0 O________OO___ jtwc_io IO061974 22.0000 82.3000 -1 22.0000 82.3000 TC 35 22.0000 82.3000 2 5 276
1974225N22089 1974 79 NI BB NOT_NAMED 1974-08-17 03:00:00 TS 22.0359 82.0324 main 0 0 P________PP___ IO061974 22.0349 82.0425 -1 22.0349 82.0425 TC 30 22.0380 82.0124 2 5 282
1974225N22089 1974 79 NI BB NOT_NAMED 1974-08-17 06:00:00 TS 22.1016 81.7826 main 0 0 O________OP___ jtwc_io IO061974 22.1000 81.8000 -1 22.1000 81.8000 TC 25 22.1049 81.7477 2 5 289
1974225N22089 1974 79 NI BB NOT_NAMED 1974-08-17 09:00:00 TS 22.1931 81.5264 main 0 0 P________PP___ IO061974 22.1925 81.5350 -1 22.1925 81.5350 TC 25 22.1943 81.5092 2 5 294
1974225N22089 1974 79 NI BB NOT_NAMED 1974-08-17 12:00:00 TS 22.3000 81.3000 main 0 0 O________OO___ jtwc_io IO061974 22.3000 81.3000 -1 22.3000 81.3000 TC 25 22.3000 81.3000 1 4 300
1974225N22089 1974 79 NI BB NOT_NAMED 1974-08-17 15:00:00 TS 22.3970 81.1397 main 0 0 P________PP___ IO061974 22.3924 81.1349 -1 22.3924 81.1349 TC 25 22.4061 81.1494 1 3 308
1974225N22089 1974 79 NI BB NOT_NAMED 1974-08-17 18:00:00 TS 22.5089 81.0073 main 0 0 O________OP___ jtwc_io IO061974 22.5000 81.0000 -1 22.5000 81.0000 TC 25 22.5268 81.0220 1 4 316
1974225N22089 1974 79 NI BB NOT_NAMED 1974-08-17 21:00:00 TS 22.6480 80.8762 main 0 0 P________PP___ IO061974 22.6424 80.8724 -1 22.6424 80.8724 TC 25 22.6592 80.8836 1 4 316
1974225N22089 1974 79 NI BB NOT_NAMED 1974-08-18 00:00:00 TS 22.8000 80.7000 main 0 0 O________OO___ jtwc_io IO061974 22.8000 80.7000 -1 22.8000 80.7000 TC 25 22.8000 80.7000 1 5 306
1974225N22089 1974 79 NI BB NOT_NAMED 1974-08-18 03:00:00 TS 22.9504 80.4258 main 0 0 P________PP___ IO061974 22.9500 80.4300 -1 22.9500 80.4300 TC 25 22.9512 80.4175 1 6 299
1974225N22089 1974 79 NI BB NOT_NAMED 1974-08-18 06:00:00 TS 23.1026 80.0960 main 0 0 O________OP___ jtwc_io IO061974 23.1000 80.1000 -1 23.1000 80.1000 TC 25 23.1079 80.0879 1 7 296
1974225N22089 1974 79 NI BB NOT_NAMED 1974-08-18 09:00:00 TS 23.2585 79.7465 main 0 0 P________PP___ IO061974 23.2575 79.7500 -1 23.2575 79.7500 TC 25 23.2606 79.7393 1 7 295
1974225N22089 1974 79 NI BB NOT_NAMED 1974-08-18 12:00:00 TS 23.4000 79.4000 main 0 0 O________OO___ jtwc_io IO061974 23.4000 79.4000 -1 23.4000 79.4000 TC 25 23.4000 79.4000 1 7 292
1974225N22089 1974 79 NI BB NOT_NAMED 1974-08-18 15:00:00 TS 23.5084 79.0866 main 0 0 P________PP___ IO061974 23.5074 79.0849 -1 23.5074 79.0849 TC 25 23.5102 79.0900 1 6 290
1974225N22089 1974 79 NI BB NOT_NAMED 1974-08-18 18:00:00 TS 23.6025 78.7991 main 0 0 O________OP___ jtwc_io IO061974 23.6000 78.8000 -1 23.6000 78.8000 TC 25 23.6075 78.7972 1 5 291
1974225N22089 1974 79 NI BB NOT_NAMED 1974-08-18 21:00:00 TS 23.7003 78.5286 main 0 0 P________PP___ IO061974 23.7000 78.5275 -1 23.7000 78.5275 TC 25 23.7009 78.5307 1 5 293
1974225N22089 1974 79 NI BB NOT_NAMED 1974-08-19 00:00:00 TS 23.8000 78.3000 main 0 0 O________OO___ jtwc_io IO061974 23.8000 78.3000 -1 23.8000 78.3000 TC 25 23.8000 78.3000 1 4 299
1974225N22089 1974 79 NI BB NOT_NAMED 1974-08-19 03:00:00 TS 23.8994 78.1279 main 0 0 P________PP___ IO061974 23.8924 78.1349 -1 23.8924 78.1349 TC 25 23.9135 78.1139 1 4 306
1974225N22089 1974 79 NI AS NOT_NAMED 1974-08-19 06:00:00 TS 24.0116 77.9874 main 0 0 O________OP___ jtwc_io IO061974 24.0000 78.0000 -1 24.0000 78.0000 TC 25 24.0347 77.9622 1 4 314
1974225N22089 1974 79 NI AS NOT_NAMED 1974-08-19 09:00:00 TS 24.1495 77.8432 main 0 0 P________PP___ IO061974 24.1425 77.8500 -1 24.1425 77.8500 TC 25 24.1635 77.8295 1 4 318
1974225N22089 1974 79 NI AS NOT_NAMED 1974-08-19 12:00:00 TS 24.3000 77.7000 main 0 0 O________OO___ jtwc_io IO061974 24.3000 77.7000 -1 24.3000 77.7000 TC 25 24.3000 77.7000 1 4 319
1974225N22089 1974 79 NI AS NOT_NAMED 1974-08-19 15:00:00 TS 24.4479 77.5537 main 0 0 P________PP___ IO061974 24.4500 77.5500 -1 24.4500 77.5500 TC 25 24.4436 77.5612 1 4 318
1974225N22089 1974 79 NI AS NOT_NAMED 1974-08-19 18:00:00 TS 24.5976 77.4043 main 0 0 O________OP___ jtwc_io IO061974 24.6000 77.4000 -1 24.6000 77.4000 TC 25 24.5928 77.4129 1 4 318
1974225N22089 1974 79 NI AS NOT_NAMED 1974-08-19 21:00:00 TS 24.7485 77.2528 main 0 0 P________PP___ IO061974 24.7500 77.2501 -1 24.7500 77.2501 TC 25 24.7455 77.2582 1 4 318
1974225N22089 1974 79 NI AS NOT_NAMED 1974-08-20 00:00:00 TS 24.9000 77.1000 main 0 O________OO___ jtwc_io IO061974 24.9000 77.1000 -1 24.9000 77.1000 TC 25 24.9000 77.1000 6 4 317

IBTrACS Databaseについて

本データベースは、米国NOAAが公開する1842年以降の世界の熱帯低気圧のベストトラックデータアーカイブInternational Best Track Archive for Climate Stewardship (IBTrACS)を、ウェブで閲覧しやすい形式に変換したものです。

最終更新日:2021-11-26